Varadero, Cuba
Current Conditions -  °F | °C
As of 4:52 PM on Tuesday 27 Jan 2015 (Local Time) from MUVR Reporting Station
Broken Clouds Broken Clouds  
Wind Chill: 72°   Ceiling: 2000
Heat Index: 72°   Visibility: 6mi
Dew Point: 54°   Wind: 14mph
Humidity: 53%   Direction: 320°NW
Pressure: 30.03"   Gusts: NA
Location:  23.12°N, 81.36°W
Report Text: MUVR 272052Z 32012KT 9000 BKN020 22/12 Q1017
Loading
Personal Weather Stations






























Interactive Weather Map New forecast layout! Learn more

10-Day Weather Forecast

Advertisements
Track Severe Weather on mobile